< Cyclone 201413 2014 Season Cyclone 201415 >
Cyclone 201414 (Gillian)
General InformationTrack Information on Google MapsDetailed Wind InformationList of All Images || ResourceGoogle EarthGE AnimationAtom FeedGeoJSON
Detalied Best Track (Time Zone = UTC)
Year Month Day Hour Lat. Long. Pressure (hPa) Wind (kt) Class Image Chart
2014 3 6 00 -9.9 139.0 1003 0 0 Image --
2014 3 6 06 -9.4 138.7 1003 0 0 Image --
2014 3 6 12 -9.9 139.0 1003 0 0 Image --
2014 3 6 18 -9.4 138.0 1003 0 0 Image --
2014 3 7 00 -9.2 138.2 1003 0 0 Image --
2014 3 7 06 -9.7 138.7 1003 25 2 Image --
2014 3 7 12 -9.5 138.5 1004 25 2 Image --
2014 3 7 18 -9.8 138.8 1003 25 2 Image --
2014 3 8 00 -10.1 139.0 1001 30 2 Image --
2014 3 8 06 -10.4 139.5 998 35 3 Image --
2014 3 8 12 -10.8 140.1 998 35 3 Image --
2014 3 8 18 -11.6 140.2 998 35 3 Image --
2014 3 9 00 -12.3 140.1 995 40 3 Image --
2014 3 9 06 -12.6 140.2 993 40 3 Image --
2014 3 9 12 -12.7 141.0 997 40 3 Image --
2014 3 9 18 -13.1 141.2 997 40 3 Image --
2014 3 10 00 -13.5 141.3 999 35 3 Image --
2014 3 10 06 -13.9 141.4 1000 30 2 Image --
2014 3 10 12 -13.6 141.9 1004 25 2 Image --
2014 3 10 18 -13.5 141.8 1004 25 2 Image --
2014 3 11 00 -13.9 141.6 1002 25 2 Image --
2014 3 11 06 -13.9 141.8 1000 25 2 Image --
2014 3 11 12 -14.1 141.8 1004 25 2 Image --
2014 3 11 18 -14.4 141.8 1005 20 2 Image --
2014 3 12 00 -14.7 141.8 1008 15 2 Image --
2014 3 12 06 -14.8 140.0 1005 20 2 Image --
2014 3 12 12 -15.5 139.5 1007 20 2 Image --
2014 3 12 18 -15.2 138.8 1005 20 2 Image --
2014 3 13 00 -14.5 138.0 1006 25 2 Image --
2014 3 13 06 -14.6 138.0 1003 25 2 Image --
2014 3 13 12 -14.6 138.6 1006 25 2 Image --
2014 3 13 18 -14.5 138.8 1004 25 2 Image --
2014 3 14 00 -13.9 139.3 1002 30 2 Image --
2014 3 14 06 -13.4 139.5 997 35 3 Image --
2014 3 14 12 -13.0 139.9 1001 35 3 Image --
2014 3 14 18 -12.7 139.7 999 35 3 Image --
2014 3 15 00 -11.5 139.4 999 35 3 Image --
2014 3 15 06 -11.3 139.1 1002 25 2 Image --
2014 3 15 12 -10.9 138.6 1004 25 2 Image --
2014 3 15 18 -10.9 138.6 1003 25 2 Image --
2014 3 16 00 -10.7 138.4 1003 25 2 Image --
2014 3 16 06 -10.3 137.8 1004 25 2 Image --
2014 3 16 12 -10.0 136.9 1005 25 2 Image --
2014 3 16 18 -10.1 136.3 1004 25 2 Image --
2014 3 17 00 -10.2 136.0 1006 25 2 Image --
2014 3 17 06 -10.1 135.3 1004 25 2 Image --
2014 3 17 12 -10.1 134.2 1004 30 2 Image --
2014 3 17 18 -9.8 132.8 1004 30 2 Image --
2014 3 18 00 -9.5 131.1 1006 30 2 Image --
2014 3 18 06 -9.5 129.7 1002 30 2 Image --
2014 3 18 12 -9.5 128.4 1004 35 3 Image --
2014 3 18 18 -8.9 125.9 1009 30 2 Image --
2014 3 19 00 -8.5 124.0 1009 25 2 Image --
2014 3 19 06 -8.4 122.3 1009 20 2 Image --
2014 3 19 12 -8.2 120.5 1009 20 2 Image --
2014 3 19 18 -8.1 118.8 1009 20 2 Image --
2014 3 20 00 -7.9 117.0 1009 20 2 Image --
2014 3 20 06 -8.4 115.5 1009 20 2 Image --
2014 3 20 12 -8.9 114.0 1008 25 2 Image --
2014 3 20 18 -9.0 111.7 1008 25 2 Image --
2014 3 21 00 -9.2 109.5 1005 30 2 Image --
2014 3 21 06 -9.5 108.1 1004 30 2 Image --
2014 3 21 12 -9.5 107.1 1001 35 3 Image --
2014 3 21 18 -9.8 106.1 998 40 3 Image --
2014 3 22 00 -9.9 105.4 993 45 3 Image --
2014 3 22 06 -10.3 105.1 987 50 4 Image --
2014 3 22 12 -11.2 104.8 981 60 4 Image --
2014 3 22 18 -12.1 104.4 976 70 5 Image --
2014 3 23 00 -12.9 104.1 959 90 5 Image --
2014 3 23 06 -13.7 103.7 951 95 5 Image --
2014 3 23 12 -14.5 103.6 934 110 5 Image --
2014 3 23 18 -15.3 103.6 927 120 5 Image --
2014 3 24 00 -16.2 103.6 933 115 5 Image --
2014 3 24 06 -16.9 103.7 940 105 5 Image --
2014 3 24 12 -17.6 103.7 959 90 5 Image --
2014 3 24 18 -18.3 103.9 965 80 5 Image --
2014 3 25 00 -19.1 104.2 986 55 4 Image --
2014 3 25 06 -19.8 104.0 989 50 4 Image --
2014 3 25 12 -20.4 103.6 1000 35 3 Image --
2014 3 25 18 -21.0 103.5 1003 30 2 Image --
2014 3 26 00 -21.8 102.9 1003 30 2 Image --
2014 3 26 06 -21.5 102.0 1003 30 2 Image --
2014 3 26 12 -21.3 101.2 1003 30 2 Image --
2014 3 26 18 -21.2 99.8 1004 30 2 Image --
2014 3 27 00 -21.1 98.4 1004 30 2 Image --
2014 3 27 06 -20.9 96.9 1007 25 2 Image --
< Cyclone 201413 2014 Season Cyclone 201415 >

Help